sensor_id;sensor_type;location;lat;lon;timestamp;P1;durP1;ratioP1;P2;durP2;ratioP2
19163;SDS011;9714;51.208;4.242;2023-03-20T00:01:53;32.00;;;14.13;;
19163;SDS011;9714;51.208;4.242;2023-03-20T00:04:21;28.37;;;14.47;;
19163;SDS011;9714;51.208;4.242;2023-03-20T00:06:57;29.23;;;15.30;;
19163;SDS011;9714;51.208;4.242;2023-03-20T00:09:30;34.13;;;15.90;;
19163;SDS011;9714;51.208;4.242;2023-03-20T00:11:58;29.07;;;14.23;;
19163;SDS011;9714;51.208;4.242;2023-03-20T00:14:27;34.43;;;14.87;;
19163;SDS011;9714;51.208;4.242;2023-03-20T00:16:54;31.57;;;14.90;;
19163;SDS011;9714;51.208;4.242;2023-03-20T00:19:22;26.03;;;14.03;;
19163;SDS011;9714;51.208;4.242;2023-03-20T00:21:52;32.03;;;14.43;;
19163;SDS011;9714;51.208;4.242;2023-03-20T00:24:20;30.13;;;13.60;;
19163;SDS011;9714;51.208;4.242;2023-03-20T00:26:50;30.23;;;14.03;;
19163;SDS011;9714;51.208;4.242;2023-03-20T00:32:27;32.63;;;14.00;;
19163;SDS011;9714;51.208;4.242;2023-03-20T00:34:56;29.90;;;14.43;;
19163;SDS011;9714;51.208;4.242;2023-03-20T00:37:24;29.47;;;14.53;;
19163;SDS011;9714;51.208;4.242;2023-03-20T00:39:53;34.20;;;14.33;;
19163;SDS011;9714;51.208;4.242;2023-03-20T00:42:34;28.13;;;15.10;;
19163;SDS011;9714;51.208;4.242;2023-03-20T00:45:02;36.43;;;13.47;;
19163;SDS011;9714;51.208;4.242;2023-03-20T00:47:29;24.47;;;12.70;;
19163;SDS011;9714;51.208;4.242;2023-03-20T00:50:06;27.30;;;13.07;;
19163;SDS011;9714;51.208;4.242;2023-03-20T00:52:39;24.37;;;12.03;;
19163;SDS011;9714;51.208;4.242;2023-03-20T00:55:06;29.63;;;13.90;;
19163;SDS011;9714;51.208;4.242;2023-03-20T00:57:37;29.53;;;12.63;;
19163;SDS011;9714;51.208;4.242;2023-03-20T01:00:12;23.07;;;11.03;;
19163;SDS011;9714;51.208;4.242;2023-03-20T01:02:50;25.37;;;11.83;;
19163;SDS011;9714;51.208;4.242;2023-03-20T01:05:20;22.73;;;12.13;;
19163;SDS011;9714;51.208;4.242;2023-03-20T01:07:47;24.47;;;10.43;;
19163;SDS011;9714;51.208;4.242;2023-03-20T01:10:16;27.17;;;11.73;;
19163;SDS011;9714;51.208;4.242;2023-03-20T01:12:47;30.20;;;12.33;;
19163;SDS011;9714;51.208;4.242;2023-03-20T01:15:15;23.30;;;12.20;;
19163;SDS011;9714;51.208;4.242;2023-03-20T01:17:45;23.70;;;11.37;;
19163;SDS011;9714;51.208;4.242;2023-03-20T01:20:17;23.53;;;12.13;;
19163;SDS011;9714;51.208;4.242;2023-03-20T01:22:46;29.70;;;13.10;;
19163;SDS011;9714;51.208;4.242;2023-03-20T01:25:13;27.73;;;12.77;;
19163;SDS011;9714;51.208;4.242;2023-03-20T01:27:59;29.23;;;13.50;;
19163;SDS011;9714;51.208;4.242;2023-03-20T01:37:23;35.50;;;13.33;;
19163;SDS011;9714;51.208;4.242;2023-03-20T01:40:05;24.83;;;12.23;;
19163;SDS011;9714;51.208;4.242;2023-03-20T01:43:07;27.83;;;11.50;;
19163;SDS011;9714;51.208;4.242;2023-03-20T01:46:12;22.90;;;11.20;;
19163;SDS011;9714;51.208;4.242;2023-03-20T01:52:43;23.03;;;12.20;;
19163;SDS011;9714;51.208;4.242;2023-03-20T01:55:12;27.03;;;11.57;;
19163;SDS011;9714;51.208;4.242;2023-03-20T01:57:40;23.87;;;11.17;;
19163;SDS011;9714;51.208;4.242;2023-03-20T02:00:11;27.97;;;12.30;;
19163;SDS011;9714;51.208;4.242;2023-03-20T02:02:41;33.43;;;12.03;;
19163;SDS011;9714;51.208;4.242;2023-03-20T02:05:12;27.63;;;12.17;;
19163;SDS011;9714;51.208;4.242;2023-03-20T02:07:48;26.50;;;11.83;;
19163;SDS011;9714;51.208;4.242;2023-03-20T02:10:21;29.07;;;12.10;;
19163;SDS011;9714;51.208;4.242;2023-03-20T02:12:49;34.67;;;12.87;;
19163;SDS011;9714;51.208;4.242;2023-03-20T02:15:20;24.70;;;12.37;;
19163;SDS011;9714;51.208;4.242;2023-03-20T02:17:50;21.77;;;11.20;;
19163;SDS011;9714;51.208;4.242;2023-03-20T02:20:21;21.57;;;11.33;;
19163;SDS011;9714;51.208;4.242;2023-03-20T02:31:58;40.00;;;11.63;;
19163;SDS011;9714;51.208;4.242;2023-03-20T02:38:30;28.07;;;11.93;;
19163;SDS011;9714;51.208;4.242;2023-03-20T02:41:28;22.93;;;11.67;;
19163;SDS011;9714;51.208;4.242;2023-03-20T02:44:06;38.43;;;11.90;;
19163;SDS011;9714;51.208;4.242;2023-03-20T02:46:45;32.77;;;14.13;;
19163;SDS011;9714;51.208;4.242;2023-03-20T02:49:29;24.33;;;11.83;;
19163;SDS011;9714;51.208;4.242;2023-03-20T02:52:16;24.73;;;11.93;;
19163;SDS011;9714;51.208;4.242;2023-03-20T02:54:55;30.20;;;12.87;;
19163;SDS011;9714;51.208;4.242;2023-03-20T02:57:34;28.33;;;12.37;;
19163;SDS011;9714;51.208;4.242;2023-03-20T03:03:04;31.77;;;12.80;;
19163;SDS011;9714;51.208;4.242;2023-03-20T03:08:59;38.43;;;12.77;;
19163;SDS011;9714;51.208;4.242;2023-03-20T03:11:36;29.53;;;12.30;;
19163;SDS011;9714;51.208;4.242;2023-03-20T03:14:10;30.87;;;12.63;;
19163;SDS011;9714;51.208;4.242;2023-03-20T03:16:50;29.53;;;12.90;;
19163;SDS011;9714;51.208;4.242;2023-03-20T03:19:25;36.17;;;13.63;;
19163;SDS011;9714;51.208;4.242;2023-03-20T03:21:54;38.03;;;13.60;;
19163;SDS011;9714;51.208;4.242;2023-03-20T03:24:31;27.53;;;13.47;;
19163;SDS011;9714;51.208;4.242;2023-03-20T03:27:02;31.57;;;12.20;;
19163;SDS011;9714;51.208;4.242;2023-03-20T03:29:39;29.37;;;11.97;;
19163;SDS011;9714;51.208;4.242;2023-03-20T03:32:18;35.10;;;12.93;;
19163;SDS011;9714;51.208;4.242;2023-03-20T03:37:25;31.50;;;13.03;;
19163;SDS011;9714;51.208;4.242;2023-03-20T03:40:00;31.83;;;12.90;;
19163;SDS011;9714;51.208;4.242;2023-03-20T03:45:11;32.10;;;13.13;;
19163;SDS011;9714;51.208;4.242;2023-03-20T03:47:45;31.20;;;13.67;;
19163;SDS011;9714;51.208;4.242;2023-03-20T03:50:20;30.80;;;13.00;;
19163;SDS011;9714;51.208;4.242;2023-03-20T03:53:09;32.77;;;13.03;;
19163;SDS011;9714;51.208;4.242;2023-03-20T03:55:46;28.50;;;12.60;;
19163;SDS011;9714;51.208;4.242;2023-03-20T03:58:24;31.60;;;13.23;;
19163;SDS011;9714;51.208;4.242;2023-03-20T04:00:57;28.27;;;12.37;;
19163;SDS011;9714;51.208;4.242;2023-03-20T04:03:29;35.47;;;13.43;;
19163;SDS011;9714;51.208;4.242;2023-03-20T04:06:02;35.60;;;13.13;;
19163;SDS011;9714;51.208;4.242;2023-03-20T04:08:32;30.77;;;13.03;;
19163;SDS011;9714;51.208;4.242;2023-03-20T04:11:13;35.63;;;13.67;;
19163;SDS011;9714;51.208;4.242;2023-03-20T04:19:42;30.23;;;13.03;;
19163;SDS011;9714;51.208;4.242;2023-03-20T04:22:15;28.47;;;11.50;;
19163;SDS011;9714;51.208;4.242;2023-03-20T04:24:42;34.33;;;12.20;;
19163;SDS011;9714;51.208;4.242;2023-03-20T04:27:10;30.67;;;12.20;;
19163;SDS011;9714;51.208;4.242;2023-03-20T04:29:37;34.87;;;12.23;;
19163;SDS011;9714;51.208;4.242;2023-03-20T04:32:07;35.43;;;13.50;;
19163;SDS011;9714;51.208;4.242;2023-03-20T04:40:57;31.67;;;11.17;;
19163;SDS011;9714;51.208;4.242;2023-03-20T04:43:38;28.57;;;11.33;;
19163;SDS011;9714;51.208;4.242;2023-03-20T04:46:11;28.33;;;10.53;;
19163;SDS011;9714;51.208;4.242;2023-03-20T04:48:56;37.93;;;11.70;;
19163;SDS011;9714;51.208;4.242;2023-03-20T04:51:24;34.03;;;11.43;;
19163;SDS011;9714;51.208;4.242;2023-03-20T04:53:58;30.67;;;10.83;;
19163;SDS011;9714;51.208;4.242;2023-03-20T04:56:30;32.27;;;11.17;;
19163;SDS011;9714;51.208;4.242;2023-03-20T04:59:06;30.27;;;12.23;;
19163;SDS011;9714;51.208;4.242;2023-03-20T05:01:33;33.40;;;17.27;;
19163;SDS011;9714;51.208;4.242;2023-03-20T05:04:11;25.50;;;10.90;;
19163;SDS011;9714;51.208;4.242;2023-03-20T05:06:40;25.77;;;10.30;;
19163;SDS011;9714;51.208;4.242;2023-03-20T05:09:10;30.43;;;10.57;;
19163;SDS011;9714;51.208;4.242;2023-03-20T05:11:40;23.67;;;10.00;;
19163;SDS011;9714;51.208;4.242;2023-03-20T05:14:13;32.70;;;12.27;;
19163;SDS011;9714;51.208;4.242;2023-03-20T05:16:40;23.43;;;10.10;;
19163;SDS011;9714;51.208;4.242;2023-03-20T05:19:13;23.97;;;10.97;;
19163;SDS011;9714;51.208;4.242;2023-03-20T05:21:43;28.57;;;9.93;;
19163;SDS011;9714;51.208;4.242;2023-03-20T05:24:10;34.40;;;12.50;;
19163;SDS011;9714;51.208;4.242;2023-03-20T05:26:38;36.57;;;18.23;;
19163;SDS011;9714;51.208;4.242;2023-03-20T05:29:06;35.30;;;12.40;;
19163;SDS011;9714;51.208;4.242;2023-03-20T05:31:33;29.70;;;10.80;;
19163;SDS011;9714;51.208;4.242;2023-03-20T05:34:02;34.73;;;10.33;;
19163;SDS011;9714;51.208;4.242;2023-03-20T05:36:31;23.50;;;10.73;;
19163;SDS011;9714;51.208;4.242;2023-03-20T05:38:59;31.97;;;10.87;;
19163;SDS011;9714;51.208;4.242;2023-03-20T05:41:27;27.83;;;11.70;;
19163;SDS011;9714;51.208;4.242;2023-03-20T05:44:00;35.97;;;12.87;;
19163;SDS011;9714;51.208;4.242;2023-03-20T05:46:30;37.33;;;10.73;;
19163;SDS011;9714;51.208;4.242;2023-03-20T05:48:58;32.47;;;10.07;;
19163;SDS011;9714;51.208;4.242;2023-03-20T05:51:25;34.43;;;11.97;;
19163;SDS011;9714;51.208;4.242;2023-03-20T05:53:55;31.10;;;10.40;;
19163;SDS011;9714;51.208;4.242;2023-03-20T05:56:23;30.63;;;11.90;;
19163;SDS011;9714;51.208;4.242;2023-03-20T05:58:52;35.23;;;10.27;;
19163;SDS011;9714;51.208;4.242;2023-03-20T06:01:25;31.07;;;8.83;;
19163;SDS011;9714;51.208;4.242;2023-03-20T06:03:53;24.20;;;9.43;;
19163;SDS011;9714;51.208;4.242;2023-03-20T06:06:21;34.40;;;9.60;;
19163;SDS011;9714;51.208;4.242;2023-03-20T06:08:50;32.93;;;9.47;;
19163;SDS011;9714;51.208;4.242;2023-03-20T06:11:21;26.97;;;8.30;;
19163;SDS011;9714;51.208;4.242;2023-03-20T06:13:49;23.77;;;8.93;;
19163;SDS011;9714;51.208;4.242;2023-03-20T06:16:18;28.43;;;8.60;;
19163;SDS011;9714;51.208;4.242;2023-03-20T06:18:51;30.83;;;8.67;;
19163;SDS011;9714;51.208;4.242;2023-03-20T06:21:24;22.10;;;9.20;;
19163;SDS011;9714;51.208;4.242;2023-03-20T06:23:51;27.47;;;9.40;;
19163;SDS011;9714;51.208;4.242;2023-03-20T06:26:18;22.67;;;8.90;;
19163;SDS011;9714;51.208;4.242;2023-03-20T06:28:48;25.57;;;8.47;;
19163;SDS011;9714;51.208;4.242;2023-03-20T06:31:15;27.80;;;9.57;;
19163;SDS011;9714;51.208;4.242;2023-03-20T06:33:42;28.40;;;9.00;;
19163;SDS011;9714;51.208;4.242;2023-03-20T06:36:09;29.30;;;9.20;;
19163;SDS011;9714;51.208;4.242;2023-03-20T06:38:37;33.47;;;10.17;;
19163;SDS011;9714;51.208;4.242;2023-03-20T06:41:04;31.43;;;10.07;;
19163;SDS011;9714;51.208;4.242;2023-03-20T06:43:42;28.33;;;9.33;;
19163;SDS011;9714;51.208;4.242;2023-03-20T06:46:10;33.77;;;9.90;;
19163;SDS011;9714;51.208;4.242;2023-03-20T06:48:38;26.20;;;10.43;;
19163;SDS011;9714;51.208;4.242;2023-03-20T06:51:05;31.67;;;9.27;;
19163;SDS011;9714;51.208;4.242;2023-03-20T06:53:35;31.63;;;10.67;;
19163;SDS011;9714;51.208;4.242;2023-03-20T06:56:09;25.77;;;9.03;;
19163;SDS011;9714;51.208;4.242;2023-03-20T06:58:51;26.17;;;11.13;;
19163;SDS011;9714;51.208;4.242;2023-03-20T07:01:22;32.30;;;10.33;;
19163;SDS011;9714;51.208;4.242;2023-03-20T07:03:53;30.63;;;10.40;;
19163;SDS011;9714;51.208;4.242;2023-03-20T07:06:21;24.47;;;11.00;;
19163;SDS011;9714;51.208;4.242;2023-03-20T07:08:52;30.27;;;11.50;;
19163;SDS011;9714;51.208;4.242;2023-03-20T07:11:23;27.30;;;11.17;;
19163;SDS011;9714;51.208;4.242;2023-03-20T07:13:52;28.80;;;10.63;;
19163;SDS011;9714;51.208;4.242;2023-03-20T07:16:21;31.63;;;12.43;;
19163;SDS011;9714;51.208;4.242;2023-03-20T07:18:54;33.80;;;11.80;;
19163;SDS011;9714;51.208;4.242;2023-03-20T07:21:21;30.90;;;12.53;;
19163;SDS011;9714;51.208;4.242;2023-03-20T07:23:54;27.40;;;11.37;;
19163;SDS011;9714;51.208;4.242;2023-03-20T07:26:22;40.40;;;11.80;;
19163;SDS011;9714;51.208;4.242;2023-03-20T07:28:54;28.10;;;12.27;;
19163;SDS011;9714;51.208;4.242;2023-03-20T07:34:43;28.27;;;11.17;;
19163;SDS011;9714;51.208;4.242;2023-03-20T07:37:17;26.67;;;11.30;;
19163;SDS011;9714;51.208;4.242;2023-03-20T07:39:51;30.63;;;10.83;;
19163;SDS011;9714;51.208;4.242;2023-03-20T07:42:19;32.23;;;11.13;;
19163;SDS011;9714;51.208;4.242;2023-03-20T07:45:02;33.00;;;11.37;;
19163;SDS011;9714;51.208;4.242;2023-03-20T07:47:32;32.50;;;10.30;;
19163;SDS011;9714;51.208;4.242;2023-03-20T07:50:00;32.03;;;11.20;;
19163;SDS011;9714;51.208;4.242;2023-03-20T07:52:28;27.83;;;10.57;;
19163;SDS011;9714;51.208;4.242;2023-03-20T07:54:56;31.07;;;10.90;;
19163;SDS011;9714;51.208;4.242;2023-03-20T07:57:23;28.33;;;10.03;;
19163;SDS011;9714;51.208;4.242;2023-03-20T07:59:55;29.00;;;9.70;;
19163;SDS011;9714;51.208;4.242;2023-03-20T08:02:24;29.83;;;9.67;;
19163;SDS011;9714;51.208;4.242;2023-03-20T08:04:57;24.57;;;9.17;;
19163;SDS011;9714;51.208;4.242;2023-03-20T08:07:30;28.10;;;8.70;;
19163;SDS011;9714;51.208;4.242;2023-03-20T08:12:33;30.80;;;9.30;;
19163;SDS011;9714;51.208;4.242;2023-03-20T08:15:00;24.67;;;8.50;;
19163;SDS011;9714;51.208;4.242;2023-03-20T08:17:30;23.83;;;7.83;;
19163;SDS011;9714;51.208;4.242;2023-03-20T08:19:58;29.60;;;8.37;;
19163;SDS011;9714;51.208;4.242;2023-03-20T08:22:25;29.07;;;8.40;;
19163;SDS011;9714;51.208;4.242;2023-03-20T08:24:54;24.40;;;8.23;;
19163;SDS011;9714;51.208;4.242;2023-03-20T08:27:24;28.47;;;9.13;;
19163;SDS011;9714;51.208;4.242;2023-03-20T08:29:52;31.77;;;8.97;;
19163;SDS011;9714;51.208;4.242;2023-03-20T08:32:19;34.73;;;8.20;;
19163;SDS011;9714;51.208;4.242;2023-03-20T08:37:19;26.93;;;8.30;;
19163;SDS011;9714;51.208;4.242;2023-03-20T08:39:49;30.23;;;7.70;;
19163;SDS011;9714;51.208;4.242;2023-03-20T08:42:17;25.63;;;7.17;;
19163;SDS011;9714;51.208;4.242;2023-03-20T08:44:45;22.20;;;6.17;;
19163;SDS011;9714;51.208;4.242;2023-03-20T08:47:12;20.10;;;7.13;;
19163;SDS011;9714;51.208;4.242;2023-03-20T08:49:41;21.67;;;7.37;;
19163;SDS011;9714;51.208;4.242;2023-03-20T08:54:59;21.83;;;6.00;;
19163;SDS011;9714;51.208;4.242;2023-03-20T08:57:38;31.43;;;7.40;;
19163;SDS011;9714;51.208;4.242;2023-03-20T09:07:48;19.83;;;5.93;;
19163;SDS011;9714;51.208;4.242;2023-03-20T09:10:15;24.40;;;6.53;;
19163;SDS011;9714;51.208;4.242;2023-03-20T09:12:43;23.57;;;6.77;;
19163;SDS011;9714;51.208;4.242;2023-03-20T09:15:16;18.83;;;5.67;;
19163;SDS011;9714;51.208;4.242;2023-03-20T09:17:45;22.10;;;6.23;;
19163;SDS011;9714;51.208;4.242;2023-03-20T09:20:12;21.87;;;6.63;;
19163;SDS011;9714;51.208;4.242;2023-03-20T09:22:57;29.13;;;6.37;;
19163;SDS011;9714;51.208;4.242;2023-03-20T09:25:25;20.23;;;6.10;;
19163;SDS011;9714;51.208;4.242;2023-03-20T09:27:58;17.00;;;6.20;;
19163;SDS011;9714;51.208;4.242;2023-03-20T09:30:27;26.00;;;4.77;;
19163;SDS011;9714;51.208;4.242;2023-03-20T09:33:05;22.20;;;6.60;;
19163;SDS011;9714;51.208;4.242;2023-03-20T09:35:35;24.57;;;5.90;;
19163;SDS011;9714;51.208;4.242;2023-03-20T09:40:37;22.17;;;5.83;;
19163;SDS011;9714;51.208;4.242;2023-03-20T09:46:28;20.77;;;5.30;;
19163;SDS011;9714;51.208;4.242;2023-03-20T09:51:42;23.10;;;6.50;;
19163;SDS011;9714;51.208;4.242;2023-03-20T09:54:18;23.10;;;6.37;;
19163;SDS011;9714;51.208;4.242;2023-03-20T09:56:51;24.80;;;5.60;;
19163;SDS011;9714;51.208;4.242;2023-03-20T09:59:20;20.97;;;5.80;;
19163;SDS011;9714;51.208;4.242;2023-03-20T10:01:55;21.80;;;6.00;;
19163;SDS011;9714;51.208;4.242;2023-03-20T10:04:29;24.50;;;5.53;;
19163;SDS011;9714;51.208;4.242;2023-03-20T10:07:03;26.43;;;6.10;;
19163;SDS011;9714;51.208;4.242;2023-03-20T10:09:34;19.77;;;5.90;;
19163;SDS011;9714;51.208;4.242;2023-03-20T10:12:17;20.27;;;6.17;;
19163;SDS011;9714;51.208;4.242;2023-03-20T10:15:11;14.63;;;6.00;;
19163;SDS011;9714;51.208;4.242;2023-03-20T10:20:51;24.83;;;5.80;;
19163;SDS011;9714;51.208;4.242;2023-03-20T10:23:25;21.37;;;6.77;;
19163;SDS011;9714;51.208;4.242;2023-03-20T10:26:09;23.67;;;6.03;;
19163;SDS011;9714;51.208;4.242;2023-03-20T10:28:46;25.57;;;5.83;;
19163;SDS011;9714;51.208;4.242;2023-03-20T10:31:21;22.60;;;5.63;;
19163;SDS011;9714;51.208;4.242;2023-03-20T10:34:13;20.90;;;5.83;;
19163;SDS011;9714;51.208;4.242;2023-03-20T10:37:03;23.40;;;5.50;;
19163;SDS011;9714;51.208;4.242;2023-03-20T10:39:56;22.87;;;5.43;;
19163;SDS011;9714;51.208;4.242;2023-03-20T10:42:41;23.50;;;5.90;;
19163;SDS011;9714;51.208;4.242;2023-03-20T10:45:17;23.23;;;5.77;;
19163;SDS011;9714;51.208;4.242;2023-03-20T10:48:12;33.37;;;6.27;;
19163;SDS011;9714;51.208;4.242;2023-03-20T10:50:56;22.17;;;5.73;;
19163;SDS011;9714;51.208;4.242;2023-03-20T10:56:26;16.07;;;5.53;;
19163;SDS011;9714;51.208;4.242;2023-03-20T11:01:48;23.93;;;5.57;;
19163;SDS011;9714;51.208;4.242;2023-03-20T11:04:23;22.87;;;6.50;;
19163;SDS011;9714;51.208;4.242;2023-03-20T11:06:58;21.93;;;5.23;;
19163;SDS011;9714;51.208;4.242;2023-03-20T11:09:42;20.30;;;5.67;;
19163;SDS011;9714;51.208;4.242;2023-03-20T11:12:14;20.60;;;6.10;;
19163;SDS011;9714;51.208;4.242;2023-03-20T11:14:51;24.33;;;5.80;;
19163;SDS011;9714;51.208;4.242;2023-03-20T11:17:34;24.27;;;6.17;;
19163;SDS011;9714;51.208;4.242;2023-03-20T11:20:09;24.20;;;5.53;;
19163;SDS011;9714;51.208;4.242;2023-03-20T11:22:42;22.87;;;5.30;;
19163;SDS011;9714;51.208;4.242;2023-03-20T11:25:19;21.70;;;5.53;;
19163;SDS011;9714;51.208;4.242;2023-03-20T11:27:51;27.73;;;5.87;;
19163;SDS011;9714;51.208;4.242;2023-03-20T11:30:29;23.27;;;5.97;;
19163;SDS011;9714;51.208;4.242;2023-03-20T11:32:57;25.73;;;5.90;;
19163;SDS011;9714;51.208;4.242;2023-03-20T11:35:30;20.37;;;5.60;;
19163;SDS011;9714;51.208;4.242;2023-03-20T11:38:13;17.73;;;5.07;;
19163;SDS011;9714;51.208;4.242;2023-03-20T11:40:42;18.17;;;5.07;;
19163;SDS011;9714;51.208;4.242;2023-03-20T11:43:20;18.60;;;5.30;;
19163;SDS011;9714;51.208;4.242;2023-03-20T11:45:58;29.23;;;5.07;;
19163;SDS011;9714;51.208;4.242;2023-03-20T11:48:35;30.63;;;6.57;;
19163;SDS011;9714;51.208;4.242;2023-03-20T11:51:05;18.70;;;5.10;;
19163;SDS011;9714;51.208;4.242;2023-03-20T11:53:35;20.57;;;4.93;;
19163;SDS011;9714;51.208;4.242;2023-03-20T11:56:12;23.73;;;4.83;;
19163;SDS011;9714;51.208;4.242;2023-03-20T11:58:46;23.60;;;4.97;;
19163;SDS011;9714;51.208;4.242;2023-03-20T12:01:22;20.53;;;4.30;;
19163;SDS011;9714;51.208;4.242;2023-03-20T12:04:03;26.23;;;5.27;;
19163;SDS011;9714;51.208;4.242;2023-03-20T12:06:38;25.93;;;5.50;;
19163;SDS011;9714;51.208;4.242;2023-03-20T12:09:11;18.17;;;4.47;;
19163;SDS011;9714;51.208;4.242;2023-03-20T12:12:01;22.60;;;5.20;;
19163;SDS011;9714;51.208;4.242;2023-03-20T12:14:37;24.97;;;5.70;;
19163;SDS011;9714;51.208;4.242;2023-03-20T12:17:19;18.10;;;4.53;;
19163;SDS011;9714;51.208;4.242;2023-03-20T12:20:12;18.00;;;4.90;;
19163;SDS011;9714;51.208;4.242;2023-03-20T12:25:39;28.33;;;5.53;;
19163;SDS011;9714;51.208;4.242;2023-03-20T12:28:16;16.40;;;5.83;;
19163;SDS011;9714;51.208;4.242;2023-03-20T12:30:54;20.40;;;5.17;;
19163;SDS011;9714;51.208;4.242;2023-03-20T12:33:35;22.27;;;5.53;;
19163;SDS011;9714;51.208;4.242;2023-03-20T12:38:46;28.73;;;5.60;;
19163;SDS011;9714;51.208;4.242;2023-03-20T12:41:14;24.17;;;5.47;;
19163;SDS011;9714;51.208;4.242;2023-03-20T12:44:02;27.73;;;6.83;;
19163;SDS011;9714;51.208;4.242;2023-03-20T12:47:06;23.37;;;6.23;;
19163;SDS011;9714;51.208;4.242;2023-03-20T12:49:58;15.43;;;5.10;;
19163;SDS011;9714;51.208;4.242;2023-03-20T12:52:35;18.53;;;5.27;;
19163;SDS011;9714;51.208;4.242;2023-03-20T12:55:19;22.43;;;5.63;;
19163;SDS011;9714;51.208;4.242;2023-03-20T12:58:02;21.03;;;5.87;;
19163;SDS011;9714;51.208;4.242;2023-03-20T13:06:38;18.77;;;5.53;;
19163;SDS011;9714;51.208;4.242;2023-03-20T13:09:24;26.63;;;6.10;;
19163;SDS011;9714;51.208;4.242;2023-03-20T13:12:07;18.97;;;5.60;;
19163;SDS011;9714;51.208;4.242;2023-03-20T13:14:47;19.83;;;5.13;;
19163;SDS011;9714;51.208;4.242;2023-03-20T13:17:23;17.40;;;5.17;;
19163;SDS011;9714;51.208;4.242;2023-03-20T13:20:03;22.13;;;6.20;;
19163;SDS011;9714;51.208;4.242;2023-03-20T13:23:03;19.47;;;5.93;;
19163;SDS011;9714;51.208;4.242;2023-03-20T13:25:49;24.63;;;5.60;;
19163;SDS011;9714;51.208;4.242;2023-03-20T13:28:31;18.03;;;5.40;;
19163;SDS011;9714;51.208;4.242;2023-03-20T13:31:07;19.00;;;4.97;;
19163;SDS011;9714;51.208;4.242;2023-03-20T13:33:53;23.37;;;5.63;;
19163;SDS011;9714;51.208;4.242;2023-03-20T13:36:27;27.63;;;11.50;;
19163;SDS011;9714;51.208;4.242;2023-03-20T13:39:08;23.37;;;6.73;;
19163;SDS011;9714;51.208;4.242;2023-03-20T13:41:40;29.53;;;6.83;;
19163;SDS011;9714;51.208;4.242;2023-03-20T13:46:45;20.77;;;5.33;;
19163;SDS011;9714;51.208;4.242;2023-03-20T13:49:19;23.73;;;5.37;;
19163;SDS011;9714;51.208;4.242;2023-03-20T13:51:54;19.23;;;5.77;;
19163;SDS011;9714;51.208;4.242;2023-03-20T13:54:33;30.00;;;7.00;;
19163;SDS011;9714;51.208;4.242;2023-03-20T13:57:22;18.83;;;6.07;;
19163;SDS011;9714;51.208;4.242;2023-03-20T14:00:05;19.07;;;5.63;;
19163;SDS011;9714;51.208;4.242;2023-03-20T14:02:50;22.33;;;5.80;;
19163;SDS011;9714;51.208;4.242;2023-03-20T14:05:48;21.13;;;5.67;;
19163;SDS011;9714;51.208;4.242;2023-03-20T14:08:33;20.77;;;6.20;;
19163;SDS011;9714;51.208;4.242;2023-03-20T14:11:11;21.83;;;7.03;;
19163;SDS011;9714;51.208;4.242;2023-03-20T14:13:42;25.87;;;6.10;;
19163;SDS011;9714;51.208;4.242;2023-03-20T14:16:14;22.87;;;5.70;;
19163;SDS011;9714;51.208;4.242;2023-03-20T14:18:46;19.40;;;5.53;;
19163;SDS011;9714;51.208;4.242;2023-03-20T14:21:17;23.10;;;5.67;;
19163;SDS011;9714;51.208;4.242;2023-03-20T14:23:47;21.53;;;6.30;;
19163;SDS011;9714;51.208;4.242;2023-03-20T14:26:21;29.07;;;6.13;;
19163;SDS011;9714;51.208;4.242;2023-03-20T14:28:54;20.23;;;6.23;;
19163;SDS011;9714;51.208;4.242;2023-03-20T14:31:28;21.30;;;6.57;;
19163;SDS011;9714;51.208;4.242;2023-03-20T14:33:59;18.43;;;6.23;;
19163;SDS011;9714;51.208;4.242;2023-03-20T14:36:49;27.70;;;7.20;;
19163;SDS011;9714;51.208;4.242;2023-03-20T14:39:19;34.33;;;7.30;;
19163;SDS011;9714;51.208;4.242;2023-03-20T14:41:58;24.23;;;6.37;;
19163;SDS011;9714;51.208;4.242;2023-03-20T14:44:36;26.33;;;6.57;;
19163;SDS011;9714;51.208;4.242;2023-03-20T14:47:18;23.67;;;6.37;;
19163;SDS011;9714;51.208;4.242;2023-03-20T14:49:56;29.17;;;7.17;;
19163;SDS011;9714;51.208;4.242;2023-03-20T14:58:05;25.90;;;7.50;;
19163;SDS011;9714;51.208;4.242;2023-03-20T15:01:13;24.87;;;7.03;;
19163;SDS011;9714;51.208;4.242;2023-03-20T15:03:42;21.97;;;7.07;;
19163;SDS011;9714;51.208;4.242;2023-03-20T15:06:16;25.53;;;6.80;;
19163;SDS011;9714;51.208;4.242;2023-03-20T15:08:49;23.23;;;7.57;;
19163;SDS011;9714;51.208;4.242;2023-03-20T15:11:20;18.73;;;7.50;;
19163;SDS011;9714;51.208;4.242;2023-03-20T15:13:54;21.63;;;6.00;;
19163;SDS011;9714;51.208;4.242;2023-03-20T15:16:27;25.60;;;7.00;;
19163;SDS011;9714;51.208;4.242;2023-03-20T15:18:56;20.83;;;6.57;;
19163;SDS011;9714;51.208;4.242;2023-03-20T15:21:26;22.43;;;7.60;;
19163;SDS011;9714;51.208;4.242;2023-03-20T15:23:56;27.23;;;7.20;;
19163;SDS011;9714;51.208;4.242;2023-03-20T15:26:24;29.77;;;8.40;;
19163;SDS011;9714;51.208;4.242;2023-03-20T15:28:56;33.50;;;10.50;;
19163;SDS011;9714;51.208;4.242;2023-03-20T15:31:30;30.07;;;7.73;;
19163;SDS011;9714;51.208;4.242;2023-03-20T15:33:59;24.90;;;7.67;;
19163;SDS011;9714;51.208;4.242;2023-03-20T15:36:29;21.63;;;6.43;;
19163;SDS011;9714;51.208;4.242;2023-03-20T15:39:04;27.70;;;6.73;;
19163;SDS011;9714;51.208;4.242;2023-03-20T15:41:38;21.73;;;5.50;;
19163;SDS011;9714;51.208;4.242;2023-03-20T15:44:16;22.77;;;5.80;;
19163;SDS011;9714;51.208;4.242;2023-03-20T15:47:21;23.03;;;6.10;;
19163;SDS011;9714;51.208;4.242;2023-03-20T15:53:03;33.77;;;6.20;;
19163;SDS011;9714;51.208;4.242;2023-03-20T15:55:33;18.63;;;5.70;;
19163;SDS011;9714;51.208;4.242;2023-03-20T15:58:01;24.27;;;6.43;;
19163;SDS011;9714;51.208;4.242;2023-03-20T16:00:31;23.17;;;5.40;;
19163;SDS011;9714;51.208;4.242;2023-03-20T16:03:04;20.67;;;5.40;;
19163;SDS011;9714;51.208;4.242;2023-03-20T16:05:34;22.50;;;5.37;;
19163;SDS011;9714;51.208;4.242;2023-03-20T16:08:14;20.07;;;5.00;;
19163;SDS011;9714;51.208;4.242;2023-03-20T16:10:48;24.00;;;5.00;;
19163;SDS011;9714;51.208;4.242;2023-03-20T16:13:20;19.83;;;5.47;;
19163;SDS011;9714;51.208;4.242;2023-03-20T16:15:56;23.93;;;7.33;;
19163;SDS011;9714;51.208;4.242;2023-03-20T16:18:34;28.30;;;5.87;;
19163;SDS011;9714;51.208;4.242;2023-03-20T16:21:04;19.10;;;4.77;;
19163;SDS011;9714;51.208;4.242;2023-03-20T16:23:36;21.30;;;5.80;;
19163;SDS011;9714;51.208;4.242;2023-03-20T16:26:06;21.23;;;6.07;;
19163;SDS011;9714;51.208;4.242;2023-03-20T16:28:36;26.63;;;5.87;;
19163;SDS011;9714;51.208;4.242;2023-03-20T16:31:08;22.47;;;6.27;;
19163;SDS011;9714;51.208;4.242;2023-03-20T16:33:39;21.33;;;5.43;;
19163;SDS011;9714;51.208;4.242;2023-03-20T16:36:07;21.10;;;6.43;;
19163;SDS011;9714;51.208;4.242;2023-03-20T16:38:40;25.47;;;6.33;;
19163;SDS011;9714;51.208;4.242;2023-03-20T16:41:26;26.03;;;6.73;;
19163;SDS011;9714;51.208;4.242;2023-03-20T16:43:56;25.07;;;5.40;;
19163;SDS011;9714;51.208;4.242;2023-03-20T16:46:27;20.77;;;6.63;;
19163;SDS011;9714;51.208;4.242;2023-03-20T16:49:01;23.87;;;6.10;;
19163;SDS011;9714;51.208;4.242;2023-03-20T16:52:11;23.63;;;6.03;;
19163;SDS011;9714;51.208;4.242;2023-03-20T16:54:40;20.10;;;5.63;;
19163;SDS011;9714;51.208;4.242;2023-03-20T16:57:12;24.80;;;6.17;;
19163;SDS011;9714;51.208;4.242;2023-03-20T16:59:42;21.20;;;6.40;;
19163;SDS011;9714;51.208;4.242;2023-03-20T17:08:15;18.97;;;4.67;;
19163;SDS011;9714;51.208;4.242;2023-03-20T17:10:56;21.47;;;5.67;;
19163;SDS011;9714;51.208;4.242;2023-03-20T17:13:26;21.43;;;4.83;;
19163;SDS011;9714;51.208;4.242;2023-03-20T17:15:56;17.23;;;4.80;;
19163;SDS011;9714;51.208;4.242;2023-03-20T17:21:02;21.27;;;4.50;;
19163;SDS011;9714;51.208;4.242;2023-03-20T17:23:35;16.40;;;4.90;;